Terminal Aerodrome Forecast
Issued by NWS

Home | Current Version | Previous Version | Text Only | Print | Product List | Glossary On
Versions: 1 2 3 4 5 6 7 8 9 10 11 12 13
000
FTUS45 KRIW 011100
TAFCPR
TAF
KCPR 011128Z 0112/0212 20006KT P6SM VCSH BKN060 OVC150
     FM012200 31011KT P6SM SCT060
     FM020200 VRB05KT P6SM FEW090
     FM020800 22008KT P6SM SKC=

USA.gov is the U.S. government's official web portal to all federal, state and local government web resources and services.